Time;durP1;ratioP1;P1;durP2;ratioP2;P2;SDS_P1;SDS_P2;PMS_P1;PMS_P2;Temp;Humidity;BMP_temperature;BMP_pressure;BME280_temperature;BME280_humidity;BME280_pressure;Samples;Min_cycle;Max_cycle;Signal;HPM_P1;HPM_P2
2024/01/04 00:00:02;;;;;;;6.82;4.18;;;;;;;15.31;100.00;101308.25;10603533;28;20351;-86
2024/01/04 00:05:27;;;;;;;4.53;3.10;;;;;;;15.24;100.00;101293.13;10603696;28;20047;-85
2024/01/04 00:10:50;;;;;;;5.80;4.13;;;;;;;15.27;100.00;101287.84;10588147;28;20055;-86
2024/01/04 00:16:14;;;;;;;7.68;3.40;;;;;;;15.37;100.00;101282.56;10587289;28;20047;-85
2024/01/04 00:21:36;;;;;;;9.65;4.40;;;;;;;15.42;100.00;101277.28;10613954;27;20051;-85
2024/01/04 00:26:59;;;;;;;6.80;3.50;;;;;;;15.43;100.00;101276.38;10608754;28;20119;-85
2024/01/04 00:32:23;;;;;;;5.30;3.28;;;;;;;15.48;100.00;101264.00;10584421;28;20043;-85
2024/01/04 00:37:46;;;;;;;5.95;3.50;;;;;;;15.49;100.00;101265.78;10579320;28;20071;-85
2024/01/04 00:43:09;;;;;;;6.38;3.58;;;;;;;15.58;100.00;101279.13;10589495;27;20400;-86
2024/01/04 00:48:33;;;;;;;6.60;3.70;;;;;;;15.58;100.00;101297.75;10569768;27;20084;-85
2024/01/04 00:53:56;;;;;;;5.43;3.17;;;;;;;15.75;100.00;101317.34;10594344;27;20138;-87
2024/01/04 00:59:19;;;;;;;8.38;3.17;;;;;;;15.68;100.00;101301.38;10591190;27;20062;-84
2024/01/04 01:04:44;;;;;;;6.20;3.10;;;;;;;15.46;100.00;101311.88;10608204;27;20083;-84
2024/01/04 01:10:10;;;;;;;7.97;3.60;;;;;;;15.54;100.00;101299.53;10588655;27;20487;-83
2024/01/04 01:15:32;;;;;;;5.95;4.03;;;;;;;15.48;100.00;101286.19;10594409;27;20054;-84
2024/01/04 01:20:57;;;;;;;4.10;3.33;;;;;;;15.26;100.00;101281.63;10593657;27;20047;-85
2024/01/04 01:26:19;;;;;;;7.20;3.63;;;;;;;15.22;100.00;101273.66;10583350;27;20050;-86
2024/01/04 01:31:42;;;;;;;7.75;3.72;;;;;;;15.12;100.00;101239.00;10590481;27;20048;-86
2024/01/04 01:37:06;;;;;;;5.72;3.55;;;;;;;15.14;100.00;101239.91;10578891;27;20047;-86
2024/01/04 01:42:29;;;;;;;5.03;3.25;;;;;;;15.15;100.00;101235.50;10604014;27;20066;-86
2024/01/04 01:47:52;;;;;;;11.02;3.83;;;;;;;15.01;100.00;101250.50;10608380;27;20068;-87
2024/01/04 01:53:17;;;;;;;8.05;3.38;;;;;;;14.96;100.00;101245.16;10599405;27;20061;-86
2024/01/04 01:58:40;;;;;;;5.35;3.67;;;;;;;14.65;100.00;101243.16;10623997;27;20043;-85
2024/01/04 02:04:04;;;;;;;7.60;3.65;;;;;;;14.60;100.00;101229.84;10606214;27;20049;-86
2024/01/04 02:09:29;;;;;;;8.80;3.40;;;;;;;14.80;100.00;101214.03;10579925;27;20054;-85
2024/01/04 02:14:54;;;;;;;7.78;3.58;;;;;;;14.85;100.00;101228.22;10618346;27;20043;-86
2024/01/04 02:20:16;;;;;;;6.05;3.13;;;;;;;14.93;100.00;101230.94;10590711;27;20051;-85
2024/01/04 02:25:42;;;;;;;3.85;2.72;;;;;;;14.99;100.00;101246.91;10612154;27;20047;-85
2024/01/04 02:31:05;;;;;;;5.30;3.40;;;;;;;15.01;100.00;101250.50;10592424;27;20566;-85
2024/01/04 02:36:29;;;;;;;5.28;3.53;;;;;;;15.01;100.00;101248.72;10576157;27;20047;-85
2024/01/04 02:41:54;;;;;;;5.88;3.50;;;;;;;14.86;100.00;101245.06;10605615;27;20050;-86
2024/01/04 02:47:17;;;;;;;6.18;3.85;;;;;;;14.80;100.00;101224.66;10619171;27;20049;-85
2024/01/04 02:52:40;;;;;;;6.18;4.13;;;;;;;14.88;100.00;101228.25;10590146;27;20048;-84
2024/01/04 02:58:04;;;;;;;6.65;4.20;;;;;;;14.94;100.00;101246.00;10568096;28;20036;-85
2024/01/04 03:03:26;;;;;;;9.52;3.67;;;;;;;15.13;100.00;101256.75;10561742;28;20047;-86
2024/01/04 03:08:49;;;;;;;5.15;3.33;;;;;;;15.15;100.00;101252.34;10561258;28;20043;-85
2024/01/04 03:14:13;;;;;;;5.13;3.55;;;;;;;15.09;100.00;101260.28;10560275;28;20043;-82
2024/01/04 03:19:36;;;;;;;11.95;3.78;;;;;;;15.05;100.00;101258.47;10574539;28;20051;-83
2024/01/04 03:24:59;;;;;;;7.97;3.85;;;;;;;15.16;100.00;101271.84;10574790;28;20128;-83
2024/01/04 03:30:23;;;;;;;6.82;3.63;;;;;;;15.12;100.00;101272.69;10580384;27;20051;-81
2024/01/04 03:35:45;;;;;;;7.25;3.47;;;;;;;15.08;100.00;101271.81;10560505;28;20089;-85
2024/01/04 03:41:08;;;;;;;5.68;3.20;;;;;;;15.15;100.00;101278.03;10546918;28;20040;-85
2024/01/04 03:46:32;;;;;;;4.82;3.50;;;;;;;14.86;100.00;101269.88;10560239;28;20048;-85
2024/01/04 03:51:54;;;;;;;5.68;3.20;;;;;;;14.62;100.00;101256.44;10584051;28;20054;-84
2024/01/04 03:57:17;;;;;;;5.47;3.55;;;;;;;14.79;100.00;101272.50;10594523;28;20327;-85
2024/01/04 04:02:41;;;;;;;5.07;3.33;;;;;;;14.83;100.00;101261.91;10615861;28;20564;-85
2024/01/04 04:08:04;;;;;;;13.68;3.83;;;;;;;15.01;100.00;101251.38;10602891;28;20086;-85
2024/01/04 04:13:26;;;;;;;7.68;3.85;;;;;;;14.97;100.00;101238.03;10602540;28;20074;-85
2024/01/04 04:18:51;;;;;;;9.13;3.58;;;;;;;14.99;100.00;101241.59;10596771;27;20039;-84
2024/01/04 04:24:15;;;;;;;7.03;3.92;;;;;;;14.96;100.00;101250.47;10625401;27;20394;-84
2024/01/04 04:29:41;;;;;;;6.50;4.07;;;;;;;15.05;100.00;101261.13;10609384;27;20043;-84
2024/01/04 04:35:05;;;;;;;5.75;3.33;;;;;;;15.06;100.00;101268.25;10610153;27;20170;-84
2024/01/04 04:40:28;;;;;;;10.00;4.70;;;;;;;14.88;100.00;101267.25;10623641;27;20095;-85
2024/01/04 04:45:52;;;;;;;7.78;4.00;;;;;;;14.44;100.00;101254.53;10590938;27;20043;-85
2024/01/04 04:51:16;;;;;;;35.63;19.73;;;;;;;14.60;100.00;101261.75;10571872;27;20075;-85
2024/01/04 04:56:38;;;;;;;9.82;3.90;;;;;;;14.39;100.00;101266.00;10579533;27;20054;-85
2024/01/04 05:02:02;;;;;;;11.50;3.53;;;;;;;14.72;100.00;101272.44;10611020;27;20058;-84
2024/01/04 05:07:26;;;;;;;5.45;4.00;;;;;;;14.77;100.00;101284.91;10595076;27;20047;-86
2024/01/04 05:12:48;;;;;;;11.32;7.47;;;;;;;14.61;100.00;101268.84;10608229;27;20050;-86
2024/01/04 05:18:11;;;;;;;11.23;5.70;;;;;;;14.58;100.00;101278.53;10610071;27;20051;-83
2024/01/04 05:23:35;;;;;;;7.63;5.03;;;;;;;15.11;100.00;101293.06;10595079;27;20047;-84
2024/01/04 05:28:57;;;;;;;13.55;9.68;;;;;;;15.00;100.00;101317.84;10593045;27;20039;-85
2024/01/04 05:34:22;;;;;;;18.48;13.55;;;;;;;14.81;100.00;101327.47;10592789;27;20440;-86
2024/01/04 05:39:46;;;;;;;23.88;17.40;;;;;;;14.71;100.00;101322.94;10591088;27;20138;-87
2024/01/04 05:45:10;;;;;;;20.48;16.13;;;;;;;14.66;100.00;101336.19;10606615;27;20051;-88
2024/01/04 05:50:32;;;;;;;11.88;7.38;;;;;;;14.39;100.00;101348.34;10601861;27;20070;-87
2024/01/04 05:55:56;;;;;;;4.43;4.03;;;;;;;13.90;100.00;101369.06;10607582;27;20491;-85
2024/01/04 06:01:20;;;;;;;17.65;14.50;;;;;;;13.54;100.00;101353.56;10605947;27;20130;-85
2024/01/04 06:06:43;;;;;;;23.48;17.80;;;;;;;13.52;100.00;101368.56;10606831;27;20098;-86
2024/01/04 06:12:09;;;;;;;38.33;29.83;;;;;;;13.71;100.00;101365.28;10606039;27;20039;-84
2024/01/04 06:17:31;;;;;;;20.42;13.80;;;;;;;13.89;100.00;101375.22;10602590;27;20062;-84
2024/01/04 06:22:55;;;;;;;6.93;5.10;;;;;;;14.28;100.00;101378.31;10597568;27;20047;-85
2024/01/04 06:28:19;;;;;;;17.15;13.32;;;;;;;16.74;100.00;101376.16;10590626;27;20051;-85
2024/01/04 06:33:42;;;;;;;23.30;18.60;;;;;;;19.28;100.00;101389.25;10576591;27;20482;-84
2024/01/04 06:39:05;;;;;;;33.55;24.20;;;;;;;21.74;88.64;101380.16;10599785;27;20053;-85
2024/01/04 06:44:31;;;;;;;27.90;24.80;;;;;;;23.26;76.03;101371.22;10583993;27;20047;-87
2024/01/04 06:49:54;;;;;;;37.28;26.25;;;;;;;23.50;71.04;101341.88;10562168;27;20079;-83
2024/01/04 06:55:18;;;;;;;21.23;11.70;;;;;;;23.75;67.72;101338.44;10584080;27;20058;-85
2024/01/04 07:00:42;;;;;;;21.88;14.18;;;;;;;24.70;61.09;101352.53;10584576;27;20050;-89
2024/01/04 07:06:06;;;;;;;6.00;3.33;;;;;;;25.03;56.64;101350.53;10578975;27;20058;-88
2024/01/04 07:11:31;;;;;;;7.50;4.15;;;;;;;25.63;53.29;101341.19;10602090;27;20043;-88
2024/01/04 07:16:57;;;;;;;7.30;2.67;;;;;;;25.51;49.44;101336.22;10596321;27;20066;-86
2024/01/04 07:22:21;;;;;;;10.63;3.00;;;;;;;24.91;50.40;101321.25;10599898;27;20485;-85
2024/01/04 07:27:46;;;;;;;4.72;2.72;;;;;;;25.16;49.80;101313.16;10606607;27;20608;-85
2024/01/04 07:33:10;;;;;;;7.65;3.25;;;;;;;25.63;49.47;101323.16;10602792;27;20048;-85
2024/01/04 07:38:34;;;;;;;12.73;6.55;;;;;;;26.63;46.72;101309.25;10609814;27;20070;-85
2024/01/04 07:43:56;;;;;;;11.25;5.47;;;;;;;27.19;45.72;101312.25;10602229;27;20071;-84
2024/01/04 07:49:34;;;;;;;13.32;6.05;;;;;;;27.75;43.81;101315.13;10604603;27;20100;-85
2024/01/04 07:55:00;;;;;;;9.10;4.00;;;;;;;28.02;42.01;101324.69;10612441;27;20049;-83
2024/01/04 08:00:23;;;;;;;7.75;3.17;;;;;;;27.94;42.05;101336.84;10602708;27;20130;-81
2024/01/04 08:05:47;;;;;;;10.35;5.60;;;;;;;28.41;40.27;101335.47;10624106;27;20621;-83
2024/01/04 08:11:09;;;;;;;17.75;8.90;;;;;;;28.52;40.03;101338.53;10621362;27;20051;-82
2024/01/04 08:16:32;;;;;;;3.13;1.80;;;;;;;28.98;37.59;101347.13;10612222;27;20031;-85
2024/01/04 08:21:56;;;;;;;6.65;3.13;;;;;;;29.54;36.86;101333.25;10625335;27;20088;-84
2024/01/04 08:27:19;;;;;;;10.65;4.43;;;;;;;29.44;36.75;101336.56;10617784;27;20050;-84
2024/01/04 08:32:42;;;;;;;7.03;3.63;;;;;;;30.33;35.29;101337.00;10596318;27;20562;-84
2024/01/04 08:38:06;;;;;;;8.65;3.20;;;;;;;29.89;34.66;101336.78;10597103;27;20081;-85
2024/01/04 08:43:29;;;;;;;6.90;2.10;;;;;;;30.58;34.25;101347.44;10620464;27;20054;-84
2024/01/04 08:48:51;;;;;;;5.00;2.08;;;;;;;29.62;34.66;101324.69;10638002;27;20558;-84
2024/01/04 08:54:15;;;;;;;6.18;2.45;;;;;;;29.65;33.99;101325.41;10610869;27;20051;-84
2024/01/04 08:59:38;;;;;;;7.03;1.98;;;;;;;30.52;33.35;101312.34;10609670;27;20050;-85
2024/01/04 09:05:00;;;;;;;7.20;4.05;;;;;;;30.81;33.99;101292.41;10579475;27;20437;-86
2024/01/04 09:10:24;;;;;;;8.25;4.30;;;;;;;29.01;37.28;101283.53;10609173;27;20047;-84
2024/01/04 09:15:46;;;;;;;13.82;5.22;;;;;;;28.52;38.86;101276.03;10581124;28;20047;-83
2024/01/04 09:21:10;;;;;;;7.78;3.60;;;;;;;28.18;39.09;101275.06;10551917;27;20093;-84
2024/01/04 09:26:34;;;;;;;13.93;6.30;;;;;;;28.14;39.03;101255.34;10610456;27;20055;-83
2024/01/04 09:31:57;;;;;;;8.90;5.57;;;;;;;28.41;38.86;101239.50;10608847;27;20134;-84
2024/01/04 09:37:19;;;;;;;13.88;7.78;;;;;;;28.56;38.48;101225.13;10593271;27;20495;-83
2024/01/04 09:42:45;;;;;;;13.68;9.05;;;;;;;28.68;39.19;101189.19;10607610;27;20043;-83
2024/01/04 09:48:11;;;;;;;12.82;3.95;;;;;;;28.22;40.65;101182.53;10601953;27;20057;-84
2024/01/04 09:53:34;;;;;;;14.32;4.22;;;;;;;27.26;44.02;101186.28;10522902;28;20139;-83
2024/01/04 09:59:00;;;;;;;11.40;3.55;;;;;;;27.51;44.78;101183.28;10523483;28;20052;-83
2024/01/04 10:04:24;;;;;;;14.38;4.05;;;;;;;27.73;45.21;101170.47;10555671;28;20590;-83
2024/01/04 10:09:50;;;;;;;9.30;3.25;;;;;;;27.22;45.85;101155.72;10564728;28;20043;-83
2024/01/04 10:15:15;;;;;;;11.68;5.95;;;;;;;26.94;47.37;101136.28;10563513;28;20048;-84
2024/01/04 10:20:37;;;;;;;13.50;4.32;;;;;;;26.58;49.65;101109.88;10536778;28;20144;-82
2024/01/04 10:26:11;;;;;;;9.77;3.13;;;;;;;26.54;50.79;101112.78;10536523;28;20051;-85
2024/01/04 10:31:35;;;;;;;11.02;3.45;;;;;;;26.31;52.36;101111.13;10548605;28;20055;-83
2024/01/04 10:37:09;;;;;;;8.30;2.75;;;;;;;26.39;52.30;101127.00;10578101;28;20055;-86
2024/01/04 10:42:32;;;;;;;11.68;6.53;;;;;;;26.90;50.79;101143.69;10562812;28;20043;-83
2024/01/04 10:47:56;;;;;;;9.32;2.72;;;;;;;27.87;43.00;101148.09;10577903;28;20120;-84
2024/01/04 10:53:21;;;;;;;4.03;2.10;;;;;;;26.24;43.02;101127.66;10587549;27;20144;-84
2024/01/04 10:58:49;;;;;;;5.18;2.75;;;;;;;24.81;45.46;101123.44;10568068;27;20043;-84
2024/01/04 11:04:13;;;;;;;7.43;2.80;;;;;;;25.15;45.57;101123.09;10619284;27;20057;-84
2024/01/04 11:09:36;;;;;;;3.97;1.90;;;;;;;28.21;38.81;101122.84;10599211;27;20051;-84
2024/01/04 11:14:58;;;;;;;6.85;2.03;;;;;;;29.28;36.24;101113.38;10574236;27;20406;-85
2024/01/04 11:20:42;;;;;;;4.75;1.90;;;;;;;29.73;34.99;101115.38;10572771;27;20047;-84
2024/01/04 11:26:18;;;;;;;8.93;2.10;;;;;;;29.91;34.54;101089.75;10572305;27;20043;-84
2024/01/04 11:31:43;;;;;;;4.72;2.03;;;;;;;29.91;34.33;101067.09;10604457;27;20111;-83
2024/01/04 11:37:12;;;;;;;9.23;2.10;;;;;;;29.97;34.82;101047.69;10607086;27;20503;-83
2024/01/04 11:42:36;;;;;;;5.95;2.25;;;;;;;29.43;34.96;101035.47;10603504;27;20044;-88
2024/01/04 11:47:59;;;;;;;4.80;2.13;;;;;;;28.38;36.16;101036.78;10580247;27;20050;-86
2024/01/04 11:53:28;;;;;;;7.28;2.90;;;;;;;27.06;38.23;101008.28;10617056;28;20145;-85
2024/01/04 11:58:55;;;;;;;7.13;2.42;;;;;;;26.66;39.66;101017.41;10573769;28;20101;-84
2024/01/04 12:04:21;;;;;;;6.53;3.95;;;;;;;26.35;39.57;101023.38;10591962;28;20039;-81
2024/01/04 12:09:55;;;;;;;4.38;1.98;;;;;;;25.86;40.25;101016.53;10597300;28;20043;-81
2024/01/04 12:15:21;;;;;;;16.05;7.10;;;;;;;25.18;41.34;100997.78;10568459;28;20071;-82
2024/01/04 12:20:43;;;;;;;70.10;35.08;;;;;;;24.54;43.72;101006.59;10594377;28;20431;-85
2024/01/04 12:26:11;;;;;;;5.15;2.00;;;;;;;24.71;44.40;101008.63;10588020;28;20054;-81
2024/01/04 12:31:33;;;;;;;6.90;4.78;;;;;;;24.32;46.01;101019.13;10571887;28;20047;-81
2024/01/04 12:37:06;;;;;;;32.53;20.77;;;;;;;23.97;48.21;101025.75;10592019;28;20070;-82
2024/01/04 12:42:32;;;;;;;5.35;3.45;;;;;;;23.66;49.69;101033.13;10571060;27;20571;-82
2024/01/04 12:48:01;;;;;;;4.70;3.22;;;;;;;22.91;53.27;101029.25;10594280;27;20104;-82
2024/01/04 12:53:26;;;;;;;20.15;10.60;;;;;;;22.56;57.16;101041.97;10590264;27;20043;-79
2024/01/04 12:58:50;;;;;;;36.42;23.38;;;;;;;22.36;60.39;101048.84;10622683;27;20047;-78
2024/01/04 13:04:13;;;;;;;9.77;8.57;;;;;;;22.44;61.73;101036.94;10621494;27;20059;-78
2024/01/04 13:09:36;;;;;;;7.82;5.32;;;;;;;22.84;61.20;101033.09;10584304;27;20047;-78
2024/01/04 13:14:59;;;;;;;14.15;9.70;;;;;;;22.88;60.07;101040.16;10594123;27;20121;-79
2024/01/04 13:20:23;;;;;;;7.45;3.28;;;;;;;22.87;60.85;101035.69;10609346;27;20527;-79
2024/01/04 13:25:45;;;;;;;9.25;5.60;;;;;;;23.04;60.40;101045.00;10602013;27;20092;-81
2024/01/04 13:31:10;;;;;;;5.43;4.60;;;;;;;22.99;60.90;101032.59;10620868;27;20039;-79
2024/01/04 13:36:32;;;;;;;7.03;2.20;;;;;;;22.67;63.48;101022.78;10609539;27;20043;-79
2024/01/04 13:41:55;;;;;;;8.60;7.07;;;;;;;22.59;65.22;101028.41;10611260;27;20054;-79
2024/01/04 13:47:18;;;;;;;8.05;2.92;;;;;;;22.23;68.10;101024.09;10579956;27;20143;-80
2024/01/04 13:52:41;;;;;;;7.05;3.65;;;;;;;21.74;72.65;101020.00;10610909;27;20624;-81
2024/01/04 13:58:05;;;;;;;6.85;3.75;;;;;;;21.65;75.16;101027.44;10592004;27;20437;-80
2024/01/04 14:03:29;;;;;;;11.02;3.92;;;;;;;21.56;76.64;101027.66;10590144;27;20071;-80
2024/01/04 14:08:53;;;;;;;11.02;4.43;;;;;;;21.40;78.10;101036.09;10608040;27;20058;-80
2024/01/04 14:14:17;;;;;;;10.77;5.57;;;;;;;21.14;79.37;101017.00;10617407;27;20073;-79
2024/01/04 14:19:40;;;;;;;13.27;3.60;;;;;;;20.84;81.54;101021.28;10580354;27;20051;-79
2024/01/04 14:25:03;;;;;;;6.57;3.63;;;;;;;20.61;83.54;101023.59;10604481;27;20047;-81
2024/01/04 14:30:26;;;;;;;10.75;6.25;;;;;;;20.36;86.00;101020.53;10603806;27;20061;-81
2024/01/04 14:35:53;;;;;;;6.38;3.58;;;;;;;20.12;90.06;101021.88;10614096;27;20154;-80
2024/01/04 14:41:18;;;;;;;10.57;4.90;;;;;;;19.80;95.24;101027.84;10596406;27;20050;-80
2024/01/04 14:46:41;;;;;;;15.25;6.00;;;;;;;19.58;100.00;101036.28;10591275;27;20263;-80
2024/01/04 14:52:08;;;;;;;14.70;5.65;;;;;;;19.22;100.00;101043.97;10644233;27;20051;-80
2024/01/04 14:57:30;;;;;;;14.90;6.88;;;;;;;18.90;100.00;101049.81;10633247;27;20042;-81
2024/01/04 15:02:52;;;;;;;11.90;6.68;;;;;;;18.75;100.00;101052.66;10600858;27;20065;-81
2024/01/04 15:08:16;;;;;;;10.93;6.72;;;;;;;18.41;100.00;101051.28;10590425;27;20043;-80
2024/01/04 15:13:39;;;;;;;13.05;7.32;;;;;;;18.17;100.00;101049.78;10585930;27;20146;-81
2024/01/04 15:19:01;;;;;;;12.35;9.25;;;;;;;17.88;100.00;101058.97;10604467;27;20051;-81
2024/01/04 15:24:27;;;;;;;16.85;7.65;;;;;;;17.91;100.00;101063.41;10602126;27;20047;-80
2024/01/04 15:29:51;;;;;;;19.95;11.88;;;;;;;17.73;100.00;101064.44;10598089;27;20043;-79
2024/01/04 15:35:13;;;;;;;23.85;14.15;;;;;;;17.53;100.00;101061.91;10584113;27;20293;-80
2024/01/04 15:40:37;;;;;;;28.30;19.42;;;;;;;17.25;100.00;101073.72;10644014;27;20046;-80
2024/01/04 15:46:00;;;;;;;20.33;10.63;;;;;;;17.14;100.00;101083.53;10591947;27;20383;-82
2024/01/04 15:51:24;;;;;;;12.02;5.97;;;;;;;17.19;100.00;101081.75;10576446;27;20043;-83
2024/01/04 15:56:48;;;;;;;15.35;8.68;;;;;;;17.31;100.00;101091.47;10593716;28;20043;-82
2024/01/04 16:02:11;;;;;;;12.68;7.45;;;;;;;17.37;100.00;101083.41;10599882;28;20046;-86
2024/01/04 16:07:33;;;;;;;10.68;6.75;;;;;;;17.25;100.00;101088.84;10593419;28;20047;-78
2024/01/04 16:12:57;;;;;;;16.17;9.52;;;;;;;17.21;100.00;101082.63;10579330;27;20051;-84
2024/01/04 16:18:20;;;;;;;14.65;7.38;;;;;;;17.34;100.00;101092.31;10592300;27;20130;-83
2024/01/04 16:23:43;;;;;;;16.10;10.43;;;;;;;17.25;100.00;101089.72;10594748;27;20051;-80
2024/01/04 16:29:07;;;;;;;20.67;13.02;;;;;;;17.08;100.00;101100.47;10593580;27;20123;-81
2024/01/04 16:34:29;;;;;;;34.80;25.60;;;;;;;16.93;100.00;101091.69;10601544;27;20055;-79
2024/01/04 16:39:52;;;;;;;29.23;18.95;;;;;;;16.58;100.00;101103.34;10590418;27;20055;-81
2024/01/04 16:45:16;;;;;;;18.60;9.65;;;;;;;16.33;100.00;101102.56;10609194;27;20054;-82
2024/01/04 16:50:38;;;;;;;22.55;15.77;;;;;;;16.30;100.00;101117.63;10607803;27;20104;-80
2024/01/04 16:56:01;;;;;;;39.88;32.22;;;;;;;16.05;100.00;101123.91;10603612;27;20490;-82
2024/01/04 17:01:25;;;;;;;23.33;17.27;;;;;;;15.86;100.00;101136.34;10592026;27;20075;-82
2024/01/04 17:06:50;;;;;;;15.98;8.02;;;;;;;15.84;100.00;101144.31;10588253;27;20043;-78
2024/01/04 17:12:14;;;;;;;18.38;8.95;;;;;;;15.97;100.00;101153.19;10605588;27;20096;-80
2024/01/04 17:17:41;;;;;;;15.88;9.00;;;;;;;15.94;100.00;101151.44;10593644;27;20517;-81
2024/01/04 17:23:04;;;;;;;23.67;7.50;;;;;;;15.89;100.00;101150.53;10592324;27;20069;-84
2024/01/04 17:28:26;;;;;;;34.53;23.73;;;;;;;15.84;100.00;101149.63;10598470;27;20363;-83
2024/01/04 17:33:50;;;;;;;30.60;20.70;;;;;;;15.84;100.00;101154.97;10604038;27;20039;-83
2024/01/04 17:39:13;;;;;;;44.10;32.75;;;;;;;16.00;100.00;101152.31;10592556;27;20422;-81
2024/01/04 17:44:35;;;;;;;23.27;10.88;;;;;;;15.92;100.00;101162.97;10591202;27;20043;-85
2024/01/04 17:50:00;;;;;;;20.65;11.85;;;;;;;15.80;100.00;101155.88;10601915;27;20050;-79
2024/01/04 17:55:23;;;;;;;14.63;9.05;;;;;;;15.81;100.00;101144.34;10599235;27;20047;-82
2024/01/04 18:00:45;;;;;;;12.95;5.25;;;;;;;15.81;100.00;101131.03;10598465;27;20077;-88
2024/01/04 18:06:09;;;;;;;14.65;4.68;;;;;;;15.92;100.00;101137.22;10601682;27;20517;-85
2024/01/04 18:11:36;;;;;;;18.20;8.90;;;;;;;15.69;100.00;101128.31;10590216;27;20043;-83
2024/01/04 18:16:59;;;;;;;11.98;6.07;;;;;;;15.50;100.00;101145.13;10580680;27;20039;-78
2024/01/04 18:22:23;;;;;;;18.48;7.57;;;;;;;15.44;100.00;101142.47;10602537;27;20491;-88
2024/01/04 18:27:47;;;;;;;11.98;5.93;;;;;;;15.63;100.00;101154.94;10595552;27;20525;-83
2024/01/04 18:33:11;;;;;;;13.38;6.40;;;;;;;15.76;100.00;101150.50;10597374;27;20055;-85
2024/01/04 18:38:35;;;;;;;11.93;6.70;;;;;;;15.82;100.00;101138.09;10595158;27;20058;-88
2024/01/04 18:43:59;;;;;;;20.15;10.07;;;;;;;15.56;100.00;101144.31;10589773;27;20513;-83
2024/01/04 18:49:21;;;;;;;10.63;5.10;;;;;;;15.36;100.00;101141.59;10603962;27;20100;-83
2024/01/04 18:54:45;;;;;;;11.88;4.07;;;;;;;15.51;100.00;101139.81;10588992;27;20047;-81
2024/01/04 19:00:09;;;;;;;8.98;4.28;;;;;;;15.74;100.00;101131.00;10611942;27;20055;-82
2024/01/04 19:05:32;;;;;;;8.55;4.03;;;;;;;15.86;100.00;101128.34;10590308;27;20510;-83
2024/01/04 19:10:56;;;;;;;11.02;3.85;;;;;;;16.07;100.00;101128.34;10620955;27;20047;-82
2024/01/04 19:16:19;;;;;;;9.02;3.25;;;;;;;16.16;100.00;101127.41;10620439;27;20035;-80
2024/01/04 19:21:41;;;;;;;17.23;4.20;;;;;;;16.02;100.00;101135.44;10593041;27;20396;-82
2024/01/04 19:27:06;;;;;;;8.40;4.45;;;;;;;16.13;100.00;101123.00;10590230;27;20510;-85
2024/01/04 19:32:30;;;;;;;12.82;4.97;;;;;;;16.22;100.00;101135.41;10596958;27;20051;-82
2024/01/04 19:37:54;;;;;;;11.57;3.97;;;;;;;16.39;100.00;101125.63;10592587;27;20051;-81
2024/01/04 19:43:19;;;;;;;11.73;3.78;;;;;;;16.47;100.00;101131.81;10620362;27;20047;-81
2024/01/04 19:48:43;;;;;;;14.07;4.20;;;;;;;16.42;100.00;101149.59;10590685;27;20079;-82
2024/01/04 19:54:05;;;;;;;9.43;3.90;;;;;;;16.33;100.00;101139.84;10610430;27;20071;-82
2024/01/04 19:59:30;;;;;;;9.52;3.70;;;;;;;16.39;100.00;101133.63;10603903;28;20553;-86
2024/01/04 20:04:57;;;;;;;20.48;4.22;;;;;;;16.40;100.00;101124.75;10612733;28;20491;-86
2024/01/04 20:10:27;;;;;;;12.57;3.57;;;;;;;16.45;100.00;101138.94;10608698;28;20122;-83
2024/01/04 20:15:51;;;;;;;13.57;4.78;;;;;;;16.59;100.00;101141.56;10602945;28;20067;-85
2024/01/04 20:21:14;;;;;;;20.05;4.75;;;;;;;16.63;100.00;101140.69;10599021;28;20143;-84
2024/01/04 20:26:37;;;;;;;13.50;4.45;;;;;;;16.61;100.00;101164.66;10603122;28;20047;-85
2024/01/04 20:32:01;;;;;;;17.48;4.60;;;;;;;16.58;100.00;101171.78;10589373;27;20070;-83
2024/01/04 20:37:24;;;;;;;9.40;3.78;;;;;;;16.58;100.00;101172.66;10604750;28;20142;-85
2024/01/04 20:42:46;;;;;;;16.13;4.72;;;;;;;16.60;100.00;101181.59;10586162;28;20039;-87
2024/01/04 20:48:10;;;;;;;16.20;4.85;;;;;;;16.62;100.00;101190.44;10594894;28;20299;-86
2024/01/04 20:53:33;;;;;;;17.92;5.55;;;;;;;16.61;100.00;101195.78;10568063;28;20056;-85
2024/01/04 20:58:56;;;;;;;15.57;4.10;;;;;;;16.50;100.00;101201.09;10611036;27;20044;-87
2024/01/04 21:04:20;;;;;;;15.13;4.35;;;;;;;16.54;100.00;101210.84;10587446;27;20047;-86
2024/01/04 21:09:43;;;;;;;16.65;4.60;;;;;;;16.66;100.00;101207.34;10608337;27;20150;-86
2024/01/04 21:15:06;;;;;;;22.40;9.82;;;;;;;16.60;100.00;101218.00;10608075;27;20047;-86
2024/01/04 21:20:30;;;;;;;13.50;4.93;;;;;;;16.54;100.00;101210.00;10593672;27;20241;-89
2024/01/04 21:25:52;;;;;;;16.50;5.93;;;;;;;16.49;100.00;101217.97;10608827;27;20050;-90
2024/01/04 21:31:15;;;;;;;16.10;6.90;;;;;;;16.37;100.00;101219.75;10621061;27;20043;-87
2024/01/04 21:36:39;;;;;;;15.95;8.13;;;;;;;16.26;100.00;101225.13;10608089;27;20055;-86
2024/01/04 21:42:03;;;;;;;15.52;6.10;;;;;;;16.08;100.00;101228.63;10607950;27;20127;-87
2024/01/04 21:47:25;;;;;;;16.30;7.15;;;;;;;16.04;100.00;101234.88;10604133;27;20059;-87
2024/01/04 21:52:52;;;;;;;45.80;35.00;;;;;;;15.92;100.00;101243.72;10606436;27;20055;-87
2024/01/04 21:58:18;;;;;;;24.30;15.25;;;;;;;15.49;100.00;101241.84;10575499;27;20043;-86
2024/01/04 22:03:40;;;;;;;19.38;6.82;;;;;;;15.20;100.00;101241.72;10579001;27;20050;-84
2024/01/04 22:09:05;;;;;;;16.85;6.28;;;;;;;15.22;100.00;101268.31;10609777;27;20420;-86
2024/01/04 22:14:27;;;;;;;41.72;24.13;;;;;;;15.30;100.00;101250.59;10606356;27;20051;-86
2024/01/04 22:19:50;;;;;;;52.90;31.10;;;;;;;15.23;100.00;101244.38;10601650;27;20054;-86
2024/01/04 22:25:14;;;;;;;19.65;7.40;;;;;;;14.96;100.00;101249.56;10606045;27;20055;-86
2024/01/04 22:30:36;;;;;;;23.15;8.05;;;;;;;14.82;100.00;101268.09;10585571;27;20073;-87
2024/01/04 22:35:59;;;;;;;40.53;20.63;;;;;;;14.88;100.00;101249.53;10574563;27;20043;-83
2024/01/04 22:41:23;;;;;;;19.92;6.88;;;;;;;15.03;100.00;101251.41;10619600;27;20399;-86
2024/01/04 22:46:45;;;;;;;37.65;22.17;;;;;;;15.06;100.00;101267.34;10604907;27;20491;-87
2024/01/04 22:52:08;;;;;;;17.55;11.60;;;;;;;14.75;100.00;101256.53;10604371;27;20047;-86
2024/01/04 22:57:32;;;;;;;17.02;6.93;;;;;;;14.69;100.00;101248.53;10604683;27;20051;-87
2024/01/04 23:02:55;;;;;;;33.22;21.55;;;;;;;14.54;100.00;101252.84;10618786;27;20062;-84
2024/01/04 23:08:18;;;;;;;10.63;4.60;;;;;;;14.41;100.00;101277.53;10618272;27;20364;-85
2024/01/04 23:13:42;;;;;;;18.55;13.35;;;;;;;14.51;100.00;101274.06;10589979;27;20260;-85
2024/01/04 23:19:04;;;;;;;19.15;6.90;;;;;;;14.49;100.00;101279.38;10590115;27;20050;-85
2024/01/04 23:24:26;;;;;;;8.25;3.33;;;;;;;14.58;100.00;101274.13;10606346;27;20043;-83
2024/01/04 23:29:50;;;;;;;16.05;4.18;;;;;;;14.70;100.00;101278.66;10572784;27;20089;-82
2024/01/04 23:35:13;;;;;;;12.10;3.83;;;;;;;14.52;100.00;101263.44;10613152;27;20043;-82
2024/01/04 23:40:35;;;;;;;12.95;4.72;;;;;;;14.43;100.00;101284.66;10602998;27;20046;-82
2024/01/04 23:45:59;;;;;;;16.50;6.82;;;;;;;14.39;100.00;101281.94;10598733;27;20051;-82
2024/01/04 23:51:22;;;;;;;17.90;8.27;;;;;;;14.41;100.00;101293.47;10616678;27;20602;-84
2024/01/04 23:56:44;;;;;;;7.38;4.55;;;;;;;14.30;100.00;101301.31;10589772;27;20070;-85
